Time;durP1;ratioP1;P1;durP2;ratioP2;P2;SDS_P1;SDS_P2;PMS_P1;PMS_P2;Temp;Humidity;BMP_temperature;BMP_pressure;BME280_temperature;BME280_humidity;BME280_pressure;Samples;Min_cycle;Max_cycle;Signal;HPM_P1;HPM_P2
2023/01/21 00:01:36;;;;;;;17.45;11.15;;;;;;;;;;5074850;28;20487;-60
2023/01/21 00:04:03;;;;;;;14.38;9.25;;;;;;;;;;5074777;28;20280;-60
2023/01/21 00:06:30;;;;;;;18.60;10.45;;;;;;;;;;5074757;28;20629;-60
2023/01/21 00:08:59;;;;;;;19.38;9.48;;;;;;;;;;5074537;28;20555;-60
2023/01/21 00:11:26;;;;;;;14.13;9.63;;;;;;;;;;5074464;28;20196;-61
2023/01/21 00:13:54;;;;;;;22.60;9.63;;;;;;;;;;5074629;28;20197;-60
2023/01/21 00:16:21;;;;;;;16.48;8.95;;;;;;;;;;5074541;28;20190;-60
2023/01/21 00:18:48;;;;;;;15.07;9.25;;;;;;;;;;5074461;28;20193;-60
2023/01/21 00:21:15;;;;;;;19.63;11.07;;;;;;;;;;5074635;28;20213;-60
2023/01/21 00:23:42;;;;;;;19.40;10.57;;;;;;;;;;5074321;28;20280;-60
2023/01/21 00:26:11;;;;;;;17.30;9.05;;;;;;;;;;5074465;28;20197;-60
2023/01/21 00:28:40;;;;;;;18.35;11.27;;;;;;;;;;5074318;28;20204;-60
2023/01/21 00:31:08;;;;;;;17.05;9.95;;;;;;;;;;5074217;28;20247;-60
2023/01/21 00:33:35;;;;;;;18.65;10.43;;;;;;;;;;5073425;28;20232;-60
2023/01/21 00:36:03;;;;;;;17.55;10.73;;;;;;;;;;5074112;28;20189;-60
2023/01/21 00:38:31;;;;;;;20.05;10.20;;;;;;;;;;5073893;28;20200;-60
2023/01/21 00:41:01;;;;;;;25.98;11.88;;;;;;;;;;5073992;28;20606;-60
2023/01/21 00:43:28;;;;;;;26.23;12.63;;;;;;;;;;5073848;28;20272;-61
2023/01/21 00:45:55;;;;;;;29.73;12.52;;;;;;;;;;5074022;28;20190;-60
2023/01/21 00:48:23;;;;;;;37.75;14.52;;;;;;;;;;5073859;28;20186;-60
2023/01/21 00:50:50;;;;;;;34.08;14.48;;;;;;;;;;5073745;28;20221;-60
2023/01/21 00:53:17;;;;;;;38.72;15.38;;;;;;;;;;5073705;28;20560;-61
2023/01/21 00:55:44;;;;;;;29.52;14.02;;;;;;;;;;5073940;28;20601;-61
2023/01/21 00:58:11;;;;;;;31.80;12.95;;;;;;;;;;5073908;28;20548;-61
2023/01/21 01:00:38;;;;;;;35.03;14.30;;;;;;;;;;5073551;28;20677;-61
2023/01/21 01:03:05;;;;;;;34.10;13.57;;;;;;;;;;5073628;28;20281;-60
2023/01/21 01:05:33;;;;;;;34.83;14.07;;;;;;;;;;5073462;28;20282;-60
2023/01/21 01:08:00;;;;;;;53.53;17.70;;;;;;;;;;5073700;28;20211;-61
2023/01/21 01:10:27;;;;;;;59.65;21.77;;;;;;;;;;5073313;28;20201;-60
2023/01/21 01:12:54;;;;;;;69.07;19.40;;;;;;;;;;5073415;28;20276;-60
2023/01/21 01:15:21;;;;;;;50.83;21.67;;;;;;;;;;5073382;28;20221;-60
2023/01/21 01:17:48;;;;;;;47.35;18.15;;;;;;;;;;5073212;28;20185;-60
2023/01/21 01:20:15;;;;;;;57.53;19.02;;;;;;;;;;5073074;28;20189;-60
2023/01/21 01:22:43;;;;;;;47.20;18.30;;;;;;;;;;5073412;28;20205;-61
2023/01/21 01:25:10;;;;;;;57.65;18.60;;;;;;;;;;5073274;28;20612;-61
2023/01/21 01:27:37;;;;;;;60.20;18.90;;;;;;;;;;5073177;28;20194;-60
2023/01/21 01:30:05;;;;;;;58.25;20.73;;;;;;;;;;5073116;28;20190;-60
2023/01/21 01:32:32;;;;;;;65.80;19.50;;;;;;;;;;5073420;28;20280;-61
2023/01/21 01:34:59;;;;;;;67.32;20.67;;;;;;;;;;5073155;28;20190;-61
2023/01/21 01:37:25;;;;;;;56.50;18.65;;;;;;;;;;5073048;28;20559;-61
2023/01/21 01:39:54;;;;;;;68.25;24.13;;;;;;;;;;5073050;28;20191;-60
2023/01/21 01:42:21;;;;;;;55.28;19.33;;;;;;;;;;5072824;28;20232;-60
2023/01/21 01:44:59;;;;;;;59.40;18.95;;;;;;;;;;5072644;28;20286;-61
2023/01/21 01:47:28;;;;;;;66.68;21.63;;;;;;;;;;5073031;28;20244;-61
2023/01/21 01:49:55;;;;;;;50.88;18.60;;;;;;;;;;5072971;28;20233;-61
2023/01/21 01:52:23;;;;;;;64.40;18.27;;;;;;;;;;5072751;28;20280;-60
2023/01/21 01:54:52;;;;;;;58.88;19.35;;;;;;;;;;5072835;28;20190;-61
2023/01/21 01:57:24;;;;;;;51.28;20.00;;;;;;;;;;5072658;28;20190;-61
2023/01/21 01:59:51;;;;;;;48.08;19.00;;;;;;;;;;5072554;28;20284;-61
2023/01/21 02:02:20;;;;;;;54.03;19.52;;;;;;;;;;5072685;28;20562;-61
2023/01/21 02:04:48;;;;;;;56.00;18.83;;;;;;;;;;5072725;28;20200;-61
2023/01/21 02:07:16;;;;;;;39.85;16.65;;;;;;;;;;5072532;28;20679;-61
2023/01/21 02:09:43;;;;;;;50.13;18.67;;;;;;;;;;5072628;28;20276;-61
2023/01/21 02:12:10;;;;;;;44.47;16.67;;;;;;;;;;5072489;28;20284;-61
2023/01/21 02:14:41;;;;;;;40.00;15.98;;;;;;;;;;5072710;28;20197;-61
2023/01/21 02:17:17;;;;;;;31.60;15.07;;;;;;;;;;5072611;28;20255;-61
2023/01/21 02:20:02;;;;;;;36.10;15.40;;;;;;;;;;5072540;28;20185;-61
2023/01/21 02:22:33;;;;;;;27.73;12.18;;;;;;;;;;5072343;28;20731;-61
2023/01/21 02:25:21;;;;;;;45.75;15.10;;;;;;;;;;5072630;28;20213;-61
2023/01/21 02:27:50;;;;;;;35.08;15.15;;;;;;;;;;5072497;28;20284;-61
2023/01/21 02:30:30;;;;;;;35.15;13.65;;;;;;;;;;5072375;28;20569;-61
2023/01/21 02:33:12;;;;;;;27.45;13.40;;;;;;;;;;5072284;28;20280;-61
2023/01/21 02:35:42;;;;;;;27.00;13.38;;;;;;;;;;5072451;28;20207;-61
2023/01/21 02:38:12;;;;;;;22.63;11.63;;;;;;;;;;5072364;28;20273;-61
2023/01/21 02:40:42;;;;;;;25.92;13.05;;;;;;;;;;5072176;28;20200;-61
2023/01/21 02:43:12;;;;;;;29.73;12.55;;;;;;;;;;5072712;28;20196;-61
2023/01/21 02:45:43;;;;;;;23.77;12.13;;;;;;;;;;5072138;28;20201;-61
2023/01/21 02:48:14;;;;;;;27.73;12.63;;;;;;;;;;5072595;28;20615;-61
2023/01/21 02:50:43;;;;;;;23.55;14.05;;;;;;;;;;5072298;28;20193;-61
2023/01/21 02:53:19;;;;;;;23.38;12.60;;;;;;;;;;5072294;28;20193;-61
2023/01/21 02:55:46;;;;;;;26.52;10.13;;;;;;;;;;5072145;28;20631;-60
2023/01/21 02:58:16;;;;;;;25.20;10.35;;;;;;;;;;5074918;28;20186;-60
2023/01/21 03:00:49;;;;;;;23.17;11.25;;;;;;;;;;5076011;28;20198;-61
2023/01/21 03:03:23;;;;;;;25.15;10.98;;;;;;;;;;5076036;28;20278;-61
2023/01/21 03:06:11;;;;;;;22.98;10.93;;;;;;;;;;5075877;28;20189;-60
2023/01/21 03:08:41;;;;;;;20.52;10.50;;;;;;;;;;5075651;28;20206;-61
2023/01/21 03:11:11;;;;;;;26.00;10.98;;;;;;;;;;5075751;28;20198;-61
2023/01/21 03:19:17;;;;;;;27.23;13.27;;;;;;;;;;5075552;28;20291;-61
2023/01/21 03:21:45;;;;;;;22.10;10.75;;;;;;;;;;5075485;28;20221;-61
2023/01/21 03:24:14;;;;;;;22.42;11.00;;;;;;;;;;5075466;28;20273;-60
2023/01/21 03:26:43;;;;;;;27.60;11.23;;;;;;;;;;5075419;28;20243;-60
2023/01/21 03:29:14;;;;;;;20.58;10.80;;;;;;;;;;5075256;28;20553;-60
2023/01/21 03:31:42;;;;;;;20.30;10.30;;;;;;;;;;5075504;28;20277;-61
2023/01/21 03:34:12;;;;;;;25.70;11.80;;;;;;;;;;5075222;28;20269;-60
2023/01/21 03:36:42;;;;;;;25.27;11.60;;;;;;;;;;5075334;28;20189;-61
2023/01/21 03:39:13;;;;;;;22.90;10.45;;;;;;;;;;5075284;28;20199;-60
2023/01/21 03:41:40;;;;;;;32.65;12.60;;;;;;;;;;5075034;28;20300;-61
2023/01/21 03:44:08;;;;;;;19.15;10.93;;;;;;;;;;5075064;28;20234;-61
2023/01/21 03:46:38;;;;;;;21.55;11.00;;;;;;;;;;5074970;28;20254;-61
2023/01/21 03:49:06;;;;;;;23.75;12.60;;;;;;;;;;5075230;28;20593;-61
2023/01/21 03:51:34;;;;;;;16.90;9.88;;;;;;;;;;5074881;28;20667;-60
2023/01/21 03:54:02;;;;;;;18.73;10.95;;;;;;;;;;5074970;28;20198;-60
2023/01/21 03:56:29;;;;;;;22.75;11.02;;;;;;;;;;5074875;28;20231;-60
2023/01/21 03:58:56;;;;;;;28.63;13.93;;;;;;;;;;5075119;28;20190;-61
2023/01/21 04:01:23;;;;;;;19.20;11.02;;;;;;;;;;5075112;28;20218;-61
2023/01/21 04:03:50;;;;;;;20.75;10.35;;;;;;;;;;5074743;28;20687;-60
2023/01/21 04:06:18;;;;;;;23.58;12.50;;;;;;;;;;5074829;28;20277;-60
2023/01/21 04:08:46;;;;;;;20.13;11.55;;;;;;;;;;5073463;28;20624;-60
2023/01/21 04:11:14;;;;;;;20.65;9.20;;;;;;;;;;5074807;28;20284;-60
2023/01/21 04:13:41;;;;;;;21.13;11.63;;;;;;;;;;5074716;28;20194;-60
2023/01/21 04:16:09;;;;;;;21.60;11.35;;;;;;;;;;5074496;28;20198;-61
2023/01/21 04:18:36;;;;;;;16.27;11.18;;;;;;;;;;5074515;28;20189;-60
2023/01/21 04:21:02;;;;;;;17.00;9.82;;;;;;;;;;5074291;28;20284;-61
2023/01/21 04:23:29;;;;;;;19.00;10.23;;;;;;;;;;5074283;28;20186;-61
2023/01/21 04:25:56;;;;;;;20.80;11.00;;;;;;;;;;5074563;28;20236;-61
2023/01/21 04:28:25;;;;;;;18.48;10.25;;;;;;;;;;5074449;28;20292;-60
2023/01/21 04:30:52;;;;;;;15.38;9.30;;;;;;;;;;5074306;28;20286;-60
2023/01/21 04:33:18;;;;;;;18.35;10.63;;;;;;;;;;5074121;28;20591;-61
2023/01/21 04:35:45;;;;;;;16.15;9.95;;;;;;;;;;5074158;28;20269;-60
2023/01/21 04:38:14;;;;;;;18.95;10.77;;;;;;;;;;5074325;28;20194;-61
2023/01/21 04:40:41;;;;;;;20.38;9.70;;;;;;;;;;5074222;28;20284;-61
2023/01/21 04:43:08;;;;;;;18.65;9.05;;;;;;;;;;5074035;28;20335;-60
2023/01/21 04:45:37;;;;;;;15.65;9.82;;;;;;;;;;5073799;28;20228;-60
2023/01/21 04:48:04;;;;;;;18.08;9.77;;;;;;;;;;5073897;28;20619;-60
2023/01/21 04:50:30;;;;;;;14.35;8.98;;;;;;;;;;5073781;28;20251;-61
2023/01/21 04:52:57;;;;;;;12.48;7.38;;;;;;;;;;5074010;28;20198;-61
2023/01/21 04:55:24;;;;;;;14.98;8.25;;;;;;;;;;5073872;28;20190;-61
2023/01/21 04:57:51;;;;;;;13.30;7.88;;;;;;;;;;5073752;28;20277;-60
2023/01/21 05:00:19;;;;;;;15.40;7.90;;;;;;;;;;5073631;28;20190;-60
2023/01/21 05:02:47;;;;;;;15.27;9.02;;;;;;;;;;5073428;28;20221;-61
2023/01/21 05:05:14;;;;;;;16.67;9.13;;;;;;;;;;5073481;28;20658;-61
2023/01/21 05:07:41;;;;;;;15.77;7.25;;;;;;;;;;5073674;28;20276;-61
2023/01/21 05:10:08;;;;;;;13.68;7.43;;;;;;;;;;5073553;28;20196;-61
2023/01/21 05:12:35;;;;;;;14.93;8.00;;;;;;;;;;5073486;28;20191;-60
2023/01/21 05:15:03;;;;;;;15.65;7.70;;;;;;;;;;5073428;28;20279;-60
2023/01/21 05:17:30;;;;;;;15.57;7.90;;;;;;;;;;5073302;28;20243;-61
2023/01/21 05:19:58;;;;;;;10.93;7.60;;;;;;;;;;5073237;28;20285;-60
2023/01/21 05:22:25;;;;;;;11.00;6.40;;;;;;;;;;5073098;28;20869;-61
2023/01/21 05:24:52;;;;;;;12.48;7.10;;;;;;;;;;5073281;28;20280;-61
2023/01/21 05:27:20;;;;;;;9.10;6.82;;;;;;;;;;5073180;28;20190;-60
2023/01/21 05:29:47;;;;;;;11.15;7.25;;;;;;;;;;5073154;28;20190;-60
2023/01/21 05:32:14;;;;;;;18.35;6.60;;;;;;;;;;5072931;28;20194;-61
2023/01/21 05:34:41;;;;;;;13.02;7.05;;;;;;;;;;5073243;28;20199;-61
2023/01/21 05:37:10;;;;;;;9.27;6.68;;;;;;;;;;5073077;28;20277;-61
2023/01/21 05:39:37;;;;;;;10.00;6.78;;;;;;;;;;5073060;28;20201;-61
2023/01/21 05:42:04;;;;;;;12.57;8.13;;;;;;;;;;5072879;28;20222;-61
2023/01/21 05:44:31;;;;;;;12.70;7.15;;;;;;;;;;5072666;28;20218;-60
2023/01/21 05:46:58;;;;;;;11.07;6.80;;;;;;;;;;5072808;28;20201;-61
2023/01/21 05:49:25;;;;;;;10.68;7.43;;;;;;;;;;5072789;28;20189;-61
2023/01/21 05:51:52;;;;;;;10.50;7.70;;;;;;;;;;5072687;28;20198;-61
2023/01/21 05:54:20;;;;;;;12.18;7.68;;;;;;;;;;5072808;28;20196;-60
2023/01/21 05:56:47;;;;;;;11.85;7.03;;;;;;;;;;5072757;28;20189;-60
2023/01/21 05:59:14;;;;;;;11.52;7.78;;;;;;;;;;5072653;28;20192;-61
2023/01/21 06:01:40;;;;;;;9.45;7.15;;;;;;;;;;5072823;28;20548;-61
2023/01/21 06:04:07;;;;;;;9.65;6.38;;;;;;;;;;5072730;28;20190;-60
2023/01/21 06:06:34;;;;;;;10.35;7.18;;;;;;;;;;5072697;28;20192;-61
2023/01/21 06:09:01;;;;;;;12.75;8.02;;;;;;;;;;5072619;28;20186;-60
2023/01/21 06:11:29;;;;;;;12.75;8.40;;;;;;;;;;5072511;28;20523;-61
2023/01/21 06:13:56;;;;;;;16.15;8.18;;;;;;;;;;5072452;28;20185;-60
2023/01/21 06:16:23;;;;;;;15.52;9.93;;;;;;;;;;5072644;28;20300;-60
2023/01/21 06:18:50;;;;;;;12.73;8.48;;;;;;;;;;5072549;28;20553;-61
2023/01/21 06:21:17;;;;;;;18.13;9.95;;;;;;;;;;5072498;28;20189;-60
2023/01/21 06:23:44;;;;;;;16.13;9.15;;;;;;;;;;5072390;28;20221;-60
2023/01/21 06:26:11;;;;;;;13.27;8.52;;;;;;;;;;5072316;28;20215;-60
2023/01/21 06:28:39;;;;;;;13.05;8.68;;;;;;;;;;5072409;28;20659;-60
2023/01/21 06:31:06;;;;;;;13.15;9.35;;;;;;;;;;5072516;28;20281;-61
2023/01/21 06:33:33;;;;;;;11.60;9.15;;;;;;;;;;5076130;28;20190;-60
2023/01/21 06:36:00;;;;;;;14.48;9.82;;;;;;;;;;5076516;28;20218;-61
2023/01/21 06:38:27;;;;;;;17.75;10.43;;;;;;;;;;5076368;28;20221;-61
2023/01/21 06:40:54;;;;;;;17.00;10.23;;;;;;;;;;5076315;28;20552;-61
2023/01/21 06:43:21;;;;;;;16.05;10.02;;;;;;;;;;5075999;28;20227;-61
2023/01/21 06:45:49;;;;;;;12.20;8.32;;;;;;;;;;5076416;28;20230;-60
2023/01/21 06:48:16;;;;;;;13.88;9.60;;;;;;;;;;5076315;28;20190;-60
2023/01/21 06:50:43;;;;;;;14.02;9.43;;;;;;;;;;5076229;28;20221;-60
2023/01/21 06:53:10;;;;;;;14.90;10.00;;;;;;;;;;5076112;28;20672;-61
2023/01/21 06:55:37;;;;;;;22.17;11.65;;;;;;;;;;5076025;28;20190;-61
2023/01/21 06:58:04;;;;;;;15.65;10.15;;;;;;;;;;5076217;28;20215;-61
2023/01/21 07:00:31;;;;;;;16.55;10.45;;;;;;;;;;5076245;28;20262;-61
2023/01/21 07:02:59;;;;;;;14.63;9.90;;;;;;;;;;5076356;28;20223;-60
2023/01/21 07:05:26;;;;;;;14.30;9.93;;;;;;;;;;5076142;28;20191;-60
2023/01/21 07:07:54;;;;;;;15.55;9.25;;;;;;;;;;5075964;28;20273;-61
2023/01/21 07:10:21;;;;;;;16.27;11.25;;;;;;;;;;5075860;28;20189;-60
2023/01/21 07:12:48;;;;;;;16.02;10.63;;;;;;;;;;5076156;28;20196;-60
2023/01/21 07:15:15;;;;;;;16.70;12.40;;;;;;;;;;5076005;28;20192;-61
2023/01/21 07:17:42;;;;;;;13.93;10.50;;;;;;;;;;5075894;28;20653;-60
2023/01/21 07:20:11;;;;;;;16.25;11.43;;;;;;;;;;5075827;28;20280;-60
2023/01/21 07:22:39;;;;;;;15.35;10.48;;;;;;;;;;5075642;28;20217;-60
2023/01/21 07:25:06;;;;;;;16.00;10.80;;;;;;;;;;5075901;28;20201;-60
2023/01/21 07:27:33;;;;;;;14.57;10.45;;;;;;;;;;5075851;28;20193;-60
2023/01/21 07:30:00;;;;;;;15.23;11.18;;;;;;;;;;5075632;28;20200;-61
2023/01/21 07:32:27;;;;;;;18.20;9.85;;;;;;;;;;5075715;28;20200;-60
2023/01/21 07:34:54;;;;;;;21.60;12.25;;;;;;;;;;5075548;28;20189;-60
2023/01/21 07:37:22;;;;;;;15.80;10.55;;;;;;;;;;5075423;28;20284;-60
2023/01/21 07:39:49;;;;;;;18.40;10.88;;;;;;;;;;5075589;28;20284;-61
2023/01/21 07:42:16;;;;;;;20.25;10.75;;;;;;;;;;5075523;28;20300;-61
2023/01/21 07:44:43;;;;;;;19.15;11.40;;;;;;;;;;5075060;28;20228;-60
2023/01/21 07:47:10;;;;;;;14.68;11.25;;;;;;;;;;5075312;28;20222;-60
2023/01/21 07:49:37;;;;;;;15.77;10.70;;;;;;;;;;5075210;28;20194;-61
2023/01/21 07:52:04;;;;;;;16.52;11.18;;;;;;;;;;5075215;28;20612;-60
2023/01/21 07:54:32;;;;;;;15.23;10.85;;;;;;;;;;5075293;28;20539;-60
2023/01/21 07:56:59;;;;;;;22.52;10.95;;;;;;;;;;5075119;28;20277;-60
2023/01/21 07:59:26;;;;;;;18.00;11.43;;;;;;;;;;5075241;28;20189;-60
2023/01/21 08:01:53;;;;;;;16.27;12.13;;;;;;;;;;5075087;28;20185;-60
2023/01/21 08:04:20;;;;;;;16.73;11.45;;;;;;;;;;5074878;28;20221;-60
2023/01/21 08:06:47;;;;;;;18.17;12.02;;;;;;;;;;5075204;28;20546;-60
2023/01/21 08:09:14;;;;;;;15.90;11.23;;;;;;;;;;5075021;28;20269;-60
2023/01/21 08:11:43;;;;;;;17.42;11.73;;;;;;;;;;5074971;28;20189;-60
2023/01/21 08:14:10;;;;;;;18.35;12.35;;;;;;;;;;5074872;28;20189;-60
2023/01/21 08:16:37;;;;;;;16.23;11.70;;;;;;;;;;5074725;28;20264;-60
2023/01/21 08:19:04;;;;;;;15.75;11.05;;;;;;;;;;5074596;28;20186;-60
2023/01/21 08:21:31;;;;;;;17.10;10.65;;;;;;;;;;5074837;28;20193;-61
2023/01/21 08:23:58;;;;;;;17.48;11.93;;;;;;;;;;5074759;28;20657;-61
2023/01/21 08:26:25;;;;;;;15.60;9.82;;;;;;;;;;5074695;28;20190;-60
2023/01/21 08:28:55;;;;;;;19.63;11.18;;;;;;;;;;5074632;28;20193;-60
2023/01/21 08:31:21;;;;;;;16.77;11.02;;;;;;;;;;5074444;28;20678;-60
2023/01/21 08:33:48;;;;;;;14.82;10.60;;;;;;;;;;5074621;28;20223;-60
2023/01/21 08:36:15;;;;;;;17.08;11.30;;;;;;;;;;5074484;28;20285;-60
2023/01/21 08:38:43;;;;;;;15.13;11.52;;;;;;;;;;5074402;28;20190;-61
2023/01/21 08:41:10;;;;;;;14.38;10.95;;;;;;;;;;5074182;28;20650;-60
2023/01/21 08:43:39;;;;;;;14.88;10.88;;;;;;;;;;5073938;28;20586;-61
2023/01/21 08:46:07;;;;;;;16.13;12.30;;;;;;;;;;5074127;28;20280;-60
2023/01/21 08:48:34;;;;;;;16.30;11.65;;;;;;;;;;5074279;28;20190;-61
2023/01/21 08:51:01;;;;;;;17.63;11.70;;;;;;;;;;5074194;28;20193;-60
2023/01/21 08:53:28;;;;;;;19.98;12.18;;;;;;;;;;5073936;28;20713;-60
2023/01/21 08:55:58;;;;;;;23.13;11.00;;;;;;;;;;5073419;28;20602;-60
2023/01/21 08:58:25;;;;;;;14.75;9.98;;;;;;;;;;5073885;28;20196;-61
2023/01/21 09:00:52;;;;;;;15.63;11.00;;;;;;;;;;5073982;28;20212;-60
2023/01/21 09:03:20;;;;;;;22.83;11.05;;;;;;;;;;5073842;28;20577;-61
2023/01/21 09:05:49;;;;;;;20.60;11.27;;;;;;;;;;5073868;28;20580;-61
2023/01/21 09:08:16;;;;;;;14.40;11.05;;;;;;;;;;5073860;28;20198;-61
2023/01/21 09:11:01;;;;;;;16.42;10.98;;;;;;;;;;5073592;28;20186;-61
2023/01/21 09:13:28;;;;;;;13.38;10.20;;;;;;;;;;5073942;28;20254;-61
2023/01/21 09:15:55;;;;;;;16.27;10.88;;;;;;;;;;5073551;28;20198;-61
2023/01/21 09:18:24;;;;;;;15.93;10.85;;;;;;;;;;5073510;28;20554;-61
2023/01/21 09:20:51;;;;;;;17.13;11.18;;;;;;;;;;5073411;28;20293;-61
2023/01/21 09:23:24;;;;;;;15.98;10.45;;;;;;;;;;5073173;28;20677;-61
2023/01/21 09:25:51;;;;;;;17.45;11.80;;;;;;;;;;5073499;28;20193;-60
2023/01/21 09:28:18;;;;;;;14.60;10.57;;;;;;;;;;5073333;28;20185;-60
2023/01/21 09:30:45;;;;;;;19.67;11.90;;;;;;;;;;5073533;28;20289;-60
2023/01/21 09:33:12;;;;;;;18.33;11.93;;;;;;;;;;5073263;28;20200;-61
2023/01/21 09:35:41;;;;;;;17.67;12.23;;;;;;;;;;5073241;28;20548;-60
2023/01/21 09:38:08;;;;;;;15.73;11.32;;;;;;;;;;5073100;28;20237;-61
2023/01/21 09:40:35;;;;;;;14.73;10.68;;;;;;;;;;5073277;28;20187;-61
2023/01/21 09:43:04;;;;;;;16.50;10.90;;;;;;;;;;5073159;28;20570;-61
2023/01/21 09:45:31;;;;;;;13.60;10.55;;;;;;;;;;5072806;28;20240;-60
2023/01/21 09:47:59;;;;;;;13.35;9.73;;;;;;;;;;5073005;28;20755;-61
2023/01/21 09:50:26;;;;;;;14.15;11.20;;;;;;;;;;5072797;28;20195;-60
2023/01/21 09:52:55;;;;;;;17.17;11.90;;;;;;;;;;5072969;28;20197;-60
2023/01/21 09:55:24;;;;;;;16.15;10.48;;;;;;;;;;5072981;28;20190;-60
2023/01/21 09:58:03;;;;;;;14.70;10.25;;;;;;;;;;5072996;28;20201;-60
2023/01/21 10:00:33;;;;;;;16.13;11.35;;;;;;;;;;5072979;28;20286;-61
2023/01/21 10:03:04;;;;;;;14.90;11.07;;;;;;;;;;5072716;28;20222;-61
2023/01/21 10:05:42;;;;;;;17.42;11.27;;;;;;;;;;5072678;28;20225;-61
2023/01/21 10:08:13;;;;;;;13.48;10.60;;;;;;;;;;5072135;28;20198;-60
2023/01/21 10:10:44;;;;;;;16.45;10.82;;;;;;;;;;5072785;28;20280;-61
2023/01/21 10:13:22;;;;;;;17.17;11.80;;;;;;;;;;5072652;28;20654;-60
2023/01/21 10:15:53;;;;;;;17.83;10.98;;;;;;;;;;5072909;28;20197;-60
2023/01/21 10:18:24;;;;;;;17.52;12.25;;;;;;;;;;5072668;28;20282;-61
2023/01/21 10:20:53;;;;;;;19.55;11.35;;;;;;;;;;5072622;28;20190;-60
2023/01/21 10:23:25;;;;;;;18.90;12.93;;;;;;;;;;5072574;28;20225;-61
2023/01/21 10:25:52;;;;;;;16.42;11.38;;;;;;;;;;5072559;28;20195;-61
2023/01/21 10:28:22;;;;;;;17.45;10.93;;;;;;;;;;5072709;28;20185;-61
2023/01/21 10:30:50;;;;;;;21.00;11.88;;;;;;;;;;5072763;28;20189;-60
2023/01/21 10:33:18;;;;;;;16.70;11.57;;;;;;;;;;5072628;28;20311;-60
2023/01/21 10:35:51;;;;;;;18.65;11.52;;;;;;;;;;5072533;28;20234;-61
2023/01/21 10:38:22;;;;;;;16.65;10.60;;;;;;;;;;5072442;28;20296;-61
2023/01/21 10:40:56;;;;;;;20.45;11.63;;;;;;;;;;5072665;28;20285;-60
2023/01/21 10:43:30;;;;;;;16.65;10.80;;;;;;;;;;5072190;28;20721;-61
2023/01/21 10:45:59;;;;;;;17.15;10.27;;;;;;;;;;5072627;28;20232;-61
2023/01/21 10:48:32;;;;;;;15.05;10.30;;;;;;;;;;5072377;28;20190;-61
2023/01/21 10:51:05;;;;;;;15.10;9.98;;;;;;;;;;5072216;28;20286;-61
2023/01/21 10:53:34;;;;;;;15.75;10.02;;;;;;;;;;5072452;28;20560;-61
2023/01/21 10:56:06;;;;;;;15.77;9.80;;;;;;;;;;5072394;28;20618;-61
2023/01/21 10:58:34;;;;;;;12.75;8.45;;;;;;;;;;5072281;28;20539;-61
2023/01/21 11:01:02;;;;;;;15.00;9.05;;;;;;;;;;5072336;28;20198;-61
2023/01/21 11:03:31;;;;;;;13.85;9.45;;;;;;;;;;5072150;28;20214;-61
2023/01/21 11:05:58;;;;;;;17.92;8.90;;;;;;;;;;5072328;28;20186;-60
2023/01/21 11:08:26;;;;;;;13.57;8.70;;;;;;;;;;5072111;28;20190;-61
2023/01/21 11:10:54;;;;;;;17.52;8.85;;;;;;;;;;5072157;28;20248;-61
2023/01/21 11:13:22;;;;;;;14.18;11.00;;;;;;;;;;5072263;28;20194;-61
2023/01/21 11:15:52;;;;;;;14.52;8.68;;;;;;;;;;5072213;28;20620;-61
2023/01/21 11:18:29;;;;;;;12.57;9.27;;;;;;;;;;5073863;28;20646;-61
2023/01/21 11:20:58;;;;;;;12.98;8.90;;;;;;;;;;5075968;28;20192;-61
2023/01/21 11:23:26;;;;;;;15.40;9.63;;;;;;;;;;5075689;28;20222;-63
2023/01/21 11:26:01;;;;;;;11.23;8.32;;;;;;;;;;5075744;28;20566;-61
2023/01/21 11:28:30;;;;;;;14.90;9.75;;;;;;;;;;5076197;28;20199;-61
2023/01/21 11:31:05;;;;;;;13.23;8.90;;;;;;;;;;5076007;28;20187;-61
2023/01/21 11:33:32;;;;;;;14.00;8.68;;;;;;;;;;5075632;28;20550;-61
2023/01/21 11:36:09;;;;;;;9.15;8.05;;;;;;;;;;5075682;28;20626;-61
2023/01/21 11:38:36;;;;;;;13.30;8.52;;;;;;;;;;5075550;28;20272;-61
2023/01/21 11:41:04;;;;;;;14.60;7.45;;;;;;;;;;5075324;28;20221;-61
2023/01/21 11:43:34;;;;;;;12.38;9.00;;;;;;;;;;5075314;28;20219;-61
2023/01/21 11:46:01;;;;;;;11.63;8.10;;;;;;;;;;5075499;28;20233;-61
2023/01/21 11:48:28;;;;;;;12.40;7.88;;;;;;;;;;5075388;28;20533;-61
2023/01/21 11:51:06;;;;;;;11.98;7.68;;;;;;;;;;5075236;28;20190;-61
2023/01/21 11:53:33;;;;;;;12.73;7.90;;;;;;;;;;5075115;28;20281;-61
2023/01/21 11:56:01;;;;;;;13.40;8.68;;;;;;;;;;5075193;28;20187;-62
2023/01/21 11:58:29;;;;;;;11.35;6.80;;;;;;;;;;5075251;28;20192;-61
2023/01/21 12:00:59;;;;;;;8.52;7.30;;;;;;;;;;5075107;28;20225;-61
2023/01/21 12:03:27;;;;;;;8.55;6.85;;;;;;;;;;5074834;28;20231;-61
2023/01/21 12:05:54;;;;;;;8.70;6.80;;;;;;;;;;5074885;28;20196;-61
2023/01/21 12:08:23;;;;;;;10.27;6.57;;;;;;;;;;5075294;28;20375;-61
2023/01/21 12:10:51;;;;;;;9.55;7.20;;;;;;;;;;5074989;28;20277;-61
2023/01/21 12:13:19;;;;;;;8.20;6.10;;;;;;;;;;5075009;28;20282;-61
2023/01/21 12:15:56;;;;;;;10.02;5.35;;;;;;;;;;5074779;28;20277;-61
2023/01/21 12:18:29;;;;;;;8.30;6.25;;;;;;;;;;5074699;28;20202;-61
2023/01/21 12:20:58;;;;;;;8.80;5.60;;;;;;;;;;5074836;28;20285;-61
2023/01/21 12:23:43;;;;;;;6.68;5.63;;;;;;;;;;5074555;28;20191;-61
2023/01/21 12:26:18;;;;;;;6.35;4.90;;;;;;;;;;5074495;28;20202;-60
2023/01/21 12:28:52;;;;;;;5.53;4.50;;;;;;;;;;5074420;28;20209;-61
2023/01/21 12:31:24;;;;;;;10.35;4.68;;;;;;;;;;5073880;28;20187;-60
2023/01/21 12:33:55;;;;;;;5.90;4.53;;;;;;;;;;5074657;28;20211;-61
2023/01/21 12:36:26;;;;;;;4.03;3.72;;;;;;;;;;5074349;28;20201;-61
2023/01/21 12:38:56;;;;;;;8.55;4.10;;;;;;;;;;5074464;28;20630;-61
2023/01/21 12:41:26;;;;;;;4.35;3.95;;;;;;;;;;5074218;28;20750;-61
2023/01/21 12:43:56;;;;;;;4.53;3.70;;;;;;;;;;5074219;28;20223;-61
2023/01/21 12:46:24;;;;;;;4.57;3.72;;;;;;;;;;5074358;28;20202;-60
2023/01/21 12:48:56;;;;;;;4.30;3.90;;;;;;;;;;5074262;28;20221;-61
2023/01/21 12:51:26;;;;;;;8.82;4.25;;;;;;;;;;5074097;28;20201;-61
2023/01/21 12:53:57;;;;;;;5.10;3.67;;;;;;;;;;5073951;28;20277;-61
2023/01/21 12:56:27;;;;;;;5.28;3.15;;;;;;;;;;5074284;28;20208;-61
2023/01/21 12:58:56;;;;;;;8.88;3.38;;;;;;;;;;5073941;28;20646;-61
2023/01/21 13:01:34;;;;;;;5.70;3.60;;;;;;;;;;5074008;28;20197;-60
2023/01/21 13:04:05;;;;;;;4.03;3.58;;;;;;;;;;5073900;28;20597;-60
2023/01/21 13:06:35;;;;;;;6.43;3.90;;;;;;;;;;5073812;28;20225;-61
2023/01/21 13:09:05;;;;;;;5.18;3.33;;;;;;;;;;5073912;28;20191;-61
2023/01/21 13:11:34;;;;;;;5.15;4.53;;;;;;;;;;5073812;28;20220;-61
2023/01/21 13:14:22;;;;;;;4.60;3.90;;;;;;;;;;5073763;28;20201;-61
2023/01/21 13:16:52;;;;;;;5.35;3.80;;;;;;;;;;5068709;28;20191;-61
2023/01/21 13:19:20;;;;;;;4.28;3.95;;;;;;;;;;5073720;28;20288;-61
2023/01/21 13:21:51;;;;;;;6.43;4.50;;;;;;;;;;5073698;28;20302;-61
2023/01/21 13:24:21;;;;;;;8.68;3.95;;;;;;;;;;5073531;28;20211;-61
2023/01/21 13:26:51;;;;;;;7.18;3.80;;;;;;;;;;5073453;28;20194;-61
2023/01/21 13:29:22;;;;;;;5.60;4.20;;;;;;;;;;5073659;28;20201;-60
2023/01/21 13:31:53;;;;;;;5.55;4.15;;;;;;;;;;5073614;28;20194;-60
2023/01/21 13:34:25;;;;;;;5.93;3.50;;;;;;;;;;5073391;28;20198;-60
2023/01/21 13:37:01;;;;;;;3.50;3.10;;;;;;;;;;5073343;28;20277;-60
2023/01/21 13:39:31;;;;;;;4.53;3.65;;;;;;;;;;5073018;28;20715;-60
2023/01/21 13:42:07;;;;;;;5.63;3.63;;;;;;;;;;5072569;28;20281;-60
2023/01/21 13:44:47;;;;;;;4.85;3.38;;;;;;;;;;5072765;28;20234;-60
2023/01/21 13:47:19;;;;;;;6.32;3.55;;;;;;;;;;5072962;28;20201;-60
2023/01/21 13:49:55;;;;;;;3.38;3.08;;;;;;;;;;5072698;28;20626;-60
2023/01/21 13:52:26;;;;;;;3.65;3.10;;;;;;;;;;5072692;28;20204;-60
2023/01/21 13:55:01;;;;;;;5.07;3.63;;;;;;;;;;5073161;28;20468;-60
2023/01/21 13:57:35;;;;;;;4.28;2.97;;;;;;;;;;5072986;28;20194;-60
2023/01/21 14:00:04;;;;;;;4.63;2.80;;;;;;;;;;5072964;28;20205;-60
2023/01/21 14:02:34;;;;;;;4.40;3.15;;;;;;;;;;5072708;28;20195;-60
2023/01/21 14:05:04;;;;;;;5.65;3.03;;;;;;;;;;5073038;28;20222;-60
2023/01/21 14:07:34;;;;;;;4.95;3.30;;;;;;;;;;5072779;28;20739;-60
2023/01/21 14:10:02;;;;;;;3.17;2.83;;;;;;;;;;5072898;28;20273;-60
2023/01/21 14:12:37;;;;;;;3.80;2.90;;;;;;;;;;5072740;28;20240;-60
2023/01/21 14:15:18;;;;;;;6.50;3.40;;;;;;;;;;5072599;28;20281;-60
2023/01/21 14:18:02;;;;;;;5.15;2.55;;;;;;;;;;5072648;28;20199;-61
2023/01/21 14:20:38;;;;;;;2.38;2.10;;;;;;;;;;5072739;28;20249;-61
2023/01/21 14:23:11;;;;;;;3.75;3.20;;;;;;;;;;5072753;28;20197;-60
2023/01/21 14:25:46;;;;;;;6.68;2.95;;;;;;;;;;5072427;28;20215;-61
2023/01/21 14:28:16;;;;;;;4.45;2.75;;;;;;;;;;5072741;28;20190;-61
2023/01/21 14:30:46;;;;;;;3.72;2.85;;;;;;;;;;5072718;28;20200;-61
2023/01/21 14:33:15;;;;;;;5.60;2.30;;;;;;;;;;5072664;28;20278;-61
2023/01/21 14:35:46;;;;;;;3.90;2.20;;;;;;;;;;5072629;28;20202;-61
2023/01/21 14:38:15;;;;;;;2.17;1.75;;;;;;;;;;5072458;28;20195;-61
2023/01/21 14:40:46;;;;;;;3.25;2.60;;;;;;;;;;5072723;28;20195;-61
2023/01/21 14:43:18;;;;;;;2.63;1.92;;;;;;;;;;5072549;28;20201;-61